createdAt,value
2023-03-18T00:28:11.985Z,41.57
2023-03-18T00:30:42.020Z,41.11
2023-03-18T00:33:11.083Z,41.09
2023-03-18T00:35:39.412Z,41.21
2023-03-18T00:38:09.017Z,41.29
2023-03-18T00:40:43.297Z,41.36
2023-03-18T00:43:12.702Z,41.13
2023-03-18T00:45:41.164Z,41.53
2023-03-18T00:48:08.972Z,41.36
2023-03-18T00:50:37.149Z,41.49
2023-03-18T00:53:04.680Z,41.42
2023-03-18T00:55:32.562Z,41.20
2023-03-18T00:57:59.618Z,41.34
2023-03-18T01:00:27.137Z,41.10
2023-03-18T01:02:55.106Z,41.05
2023-03-18T01:05:23.075Z,41.26
2023-03-18T01:07:50.062Z,41.24
2023-03-18T01:10:17.314Z,41.27
2023-03-18T01:12:48.539Z,41.24
2023-03-18T01:15:19.452Z,41.51
2023-03-18T01:17:46.979Z,41.33
2023-03-18T01:20:19.920Z,41.32
2023-03-18T01:22:46.986Z,41.23
2023-03-18T01:25:16.425Z,41.10
2023-03-18T01:27:44.470Z,41.35
2023-03-18T01:30:13.516Z,41.49
2023-03-18T01:32:41.663Z,41.37
2023-03-18T01:35:09.393Z,41.33
2023-03-18T01:53:11.880Z,41.33
2023-03-18T01:55:41.033Z,41.24
2023-03-18T01:58:20.063Z,41.27
2023-03-18T02:56:01.756Z,41.67
2023-03-18T02:58:29.138Z,41.80
2023-03-18T03:00:57.653Z,41.99
2023-03-18T03:56:29.118Z,41.43
2023-03-18T03:58:56.137Z,41.33
2023-03-18T04:57:19.817Z,40.75
2023-03-18T04:59:47.021Z,40.49
2023-03-18T05:02:14.488Z,40.26
2023-03-18T06:00:38.544Z,20.54
2023-03-18T06:03:05.950Z,19.81
2023-03-18T06:43:29.797Z,17.34
2023-03-18T07:04:00.716Z,16.73
2023-03-18T07:06:30.167Z,16.33
2023-03-18T08:55:51.886Z,16.19
2023-03-18T08:58:18.960Z,16.28
2023-03-18T09:12:25.353Z,16.08
2023-03-18T09:27:53.223Z,15.45
2023-03-18T09:58:01.462Z,15.89
2023-03-18T10:00:37.769Z,15.88
2023-03-18T10:22:42.090Z,16.87
2023-03-18T10:38:38.008Z,16.98
2023-03-18T10:41:36.606Z,17.60
2023-03-18T10:44:22.598Z,17.75
2023-03-18T10:47:19.868Z,17.75
2023-03-18T10:50:13.529Z,17.82
2023-03-18T10:52:58.783Z,17.51
2023-03-18T10:55:39.535Z,17.18
2023-03-18T10:58:19.506Z,16.88
2023-03-18T11:00:46.636Z,17.48
2023-03-18T11:03:37.334Z,17.36
2023-03-18T11:06:07.282Z,18.16
2023-03-18T11:08:40.075Z,17.76
2023-03-18T11:11:33.460Z,17.74
2023-03-18T11:14:04.285Z,17.59
2023-03-18T11:16:41.559Z,18.09
2023-03-18T11:19:32.846Z,17.82
2023-03-18T11:22:07.767Z,18.07
2023-03-18T11:24:44.989Z,17.91
2023-03-18T11:27:39.660Z,18.38
2023-03-18T11:30:40.768Z,19.44
2023-03-18T11:33:17.495Z,21.95
2023-03-18T11:36:05.011Z,21.44
2023-03-18T11:38:37.303Z,22.09
2023-03-18T11:41:27.768Z,22.67
2023-03-18T11:44:06.868Z,22.03
2023-03-18T11:46:46.094Z,21.98
2023-03-18T11:49:17.760Z,23.45
2023-03-18T11:52:07.062Z,21.93
2023-03-18T11:55:04.408Z,21.93
2023-03-18T11:57:33.997Z,21.80
2023-03-18T12:00:40.706Z,22.18
2023-03-18T12:03:33.049Z,23.73
2023-03-18T12:06:24.688Z,24.13
2023-03-18T12:09:00.969Z,23.71
2023-03-18T12:11:39.648Z,24.09
2023-03-18T12:14:44.746Z,27.29
2023-03-18T12:17:56.647Z,24.24
2023-03-18T12:20:47.145Z,25.77
2023-03-18T12:23:32.467Z,25.00
2023-03-18T12:26:12.451Z,25.50
2023-03-18T12:29:24.849Z,23.69
2023-03-18T12:32:15.530Z,23.96
2023-03-18T12:35:23.710Z,25.45
2023-03-18T12:56:51.066Z,24.74
2023-03-18T12:59:56.745Z,23.70
2023-03-18T13:02:47.235Z,24.32
2023-03-18T13:05:47.700Z,25.21
2023-03-18T13:08:52.242Z,24.43
2023-03-18T13:11:39.600Z,26.09
2023-03-18T13:14:35.727Z,24.13
2023-03-18T13:17:05.157Z,25.54
2023-03-18T13:19:34.968Z,25.64
2023-03-18T13:22:32.121Z,26.07
2023-03-18T13:25:29.645Z,24.96
2023-03-18T13:28:11.441Z,24.67
2023-03-18T14:00:40.500Z,25.34
2023-03-18T14:03:23.056Z,26.04
2023-03-18T14:18:45.513Z,26.68
2023-03-18T14:21:28.903Z,25.94
2023-03-18T14:51:58.695Z,26.70
2023-03-18T14:54:29.743Z,26.49
2023-03-18T14:56:58.007Z,26.80
2023-03-18T15:03:01.580Z,26.80
2023-03-18T15:05:36.177Z,26.39
2023-03-18T15:08:13.053Z,26.40
2023-03-18T15:19:32.802Z,25.89
2023-03-18T15:22:04.745Z,25.94
2023-03-18T15:30:37.092Z,26.40
2023-03-18T15:33:22.804Z,26.17
2023-03-18T16:04:07.621Z,27.73
2023-03-18T16:06:35.106Z,27.78
2023-03-18T16:30:05.179Z,29.38
2023-03-18T16:32:36.804Z,28.85
2023-03-18T16:35:03.941Z,29.65
2023-03-18T16:40:33.600Z,29.74
2023-03-18T16:43:00.623Z,29.38
2023-03-18T16:45:33.314Z,29.87
2023-03-18T16:48:06.727Z,30.18
2023-03-18T16:50:38.448Z,29.49
2023-03-18T16:53:31.893Z,30.19
2023-03-18T16:56:04.305Z,29.76
2023-03-18T16:58:35.440Z,30.28
2023-03-18T17:01:07.462Z,29.70
2023-03-18T17:03:36.613Z,29.96
2023-03-18T17:06:04.422Z,29.72
2023-03-18T17:08:31.549Z,29.94
2023-03-18T17:11:02.167Z,29.89
2023-03-18T17:13:34.023Z,30.17
2023-03-18T17:16:01.850Z,30.15
2023-03-18T17:18:28.909Z,30.13
2023-03-18T17:20:56.037Z,30.26
2023-03-18T17:23:28.713Z,29.89
2023-03-18T17:26:00.662Z,29.86
2023-03-18T17:28:36.351Z,29.90
2023-03-18T17:31:04.400Z,30.30
2023-03-18T17:33:35.525Z,30.30
2023-03-18T17:36:02.917Z,30.13
2023-03-18T17:38:35.105Z,29.97
2023-03-18T17:41:22.462Z,30.04
2023-03-18T17:43:49.763Z,31.00
2023-03-18T17:46:16.875Z,30.46
2023-03-18T17:48:44.084Z,30.48
2023-03-18T17:51:23.650Z,30.27
2023-03-18T17:53:59.621Z,30.32
2023-03-18T17:56:27.937Z,30.37
2023-03-18T17:58:55.319Z,30.35
2023-03-18T18:01:28.617Z,30.36
2023-03-18T18:03:57.869Z,30.41
2023-03-18T18:06:30.773Z,30.41
2023-03-18T18:09:00.290Z,30.28
2023-03-18T18:11:44.337Z,30.38
2023-03-18T18:14:25.948Z,30.60
2023-03-18T18:16:56.025Z,30.45
2023-03-18T18:19:24.393Z,30.73
2023-03-18T18:21:52.811Z,30.35
2023-03-18T18:24:25.926Z,30.69
2023-03-18T18:26:53.035Z,30.65
2023-03-18T18:29:23.728Z,30.81
2023-03-18T18:31:52.272Z,31.04
2023-03-18T18:34:21.287Z,30.97
2023-03-18T18:36:50.781Z,31.19
2023-03-18T18:39:18.257Z,30.91
2023-03-18T18:41:46.428Z,31.22
2023-03-18T18:44:14.188Z,31.26
2023-03-18T18:46:41.429Z,31.05
2023-03-18T18:49:24.313Z,31.34
2023-03-18T18:51:53.622Z,31.49
2023-03-18T18:54:23.073Z,31.43
2023-03-18T18:56:50.872Z,31.56
2023-03-18T18:59:23.320Z,31.59
2023-03-18T19:01:55.559Z,31.77
2023-03-18T19:04:23.760Z,31.67
2023-03-18T19:06:52.531Z,31.79
2023-03-18T19:09:26.055Z,32.12
2023-03-18T19:11:56.200Z,31.86
2023-03-18T19:14:28.950Z,32.00
2023-03-18T19:16:59.772Z,32.14
2023-03-18T19:19:32.433Z,32.04
2023-03-18T19:22:00.422Z,32.21
2023-03-18T19:24:31.965Z,32.02
2023-03-18T19:27:26.620Z,32.22
2023-03-18T19:29:58.624Z,32.37
2023-03-18T19:32:27.068Z,32.42
2023-03-18T19:34:54.992Z,32.66
2023-03-18T19:37:32.392Z,32.52
2023-03-18T19:40:02.309Z,32.65
2023-03-18T19:42:29.762Z,32.81
2023-03-18T19:44:57.311Z,32.80
2023-03-18T19:47:28.135Z,32.66
2023-03-18T19:49:55.437Z,32.68
2023-03-18T19:52:26.153Z,32.79
2023-03-18T19:54:55.177Z,32.88
2023-03-18T19:57:32.621Z,33.12
2023-03-18T20:00:04.911Z,33.13
2023-03-18T20:02:34.882Z,33.00
2023-03-18T20:05:14.412Z,33.27
2023-03-18T20:07:42.692Z,33.25
2023-03-18T20:10:12.222Z,33.32
2023-03-18T20:12:43.060Z,33.18
2023-03-18T20:15:24.751Z,33.13
2023-03-18T20:17:53.298Z,33.53
2023-03-18T20:20:24.193Z,33.39
2023-03-18T20:22:59.344Z,33.68
2023-03-18T20:25:41.111Z,33.43
2023-03-18T20:28:17.697Z,33.67
2023-03-18T20:30:46.231Z,33.48
2023-03-18T20:33:13.870Z,33.76
2023-03-18T20:35:44.128Z,33.96
2023-03-18T20:38:38.484Z,34.04
2023-03-18T20:41:11.373Z,33.75
2023-03-18T20:43:38.395Z,33.99
2023-03-18T20:46:05.789Z,33.96
2023-03-18T20:48:32.949Z,34.08
2023-03-18T20:50:59.964Z,34.08
2023-03-18T20:53:28.959Z,34.36
2023-03-18T20:55:56.888Z,34.42
2023-03-18T20:58:28.314Z,34.45
2023-03-18T21:00:55.677Z,34.40
2023-03-18T21:03:31.930Z,34.62
2023-03-18T21:06:02.446Z,34.32
2023-03-18T21:08:31.641Z,34.66
2023-03-18T21:11:01.981Z,34.69
2023-03-18T21:13:39.001Z,34.36
2023-03-18T21:16:13.062Z,34.56
2023-03-18T21:18:42.099Z,34.61
2023-03-18T21:21:28.911Z,34.62
2023-03-18T21:23:55.942Z,34.67
2023-03-18T21:26:23.813Z,34.69
2023-03-18T21:28:51.834Z,34.77
2023-03-18T21:31:26.869Z,34.89
2023-03-18T21:33:55.218Z,34.71
2023-03-18T21:36:22.531Z,34.73
2023-03-18T21:41:44.681Z,34.81
2023-03-18T21:44:12.461Z,34.86
2023-03-18T22:04:56.458Z,35.11
2023-03-18T22:07:24.934Z,34.94
2023-03-18T22:51:31.324Z,34.92
2023-03-18T22:53:58.595Z,34.91
2023-03-18T23:05:53.600Z,34.97
2023-03-18T23:08:21.748Z,35.11
2023-03-18T23:10:52.386Z,35.31
2023-03-18T23:13:35.839Z,35.24
2023-03-18T23:16:09.404Z,35.23
2023-03-18T23:18:37.560Z,35.17
2023-03-18T23:21:04.681Z,35.35
2023-03-18T23:23:32.049Z,35.30
2023-03-18T23:25:59.146Z,35.51
2023-03-18T23:28:26.173Z,35.52
2023-03-18T23:30:53.880Z,35.69
2023-03-18T23:36:24.891Z,35.92
2023-03-18T23:38:51.892Z,36.02
2023-03-18T23:41:18.918Z,35.88
2023-03-18T23:46:42.288Z,36.17
2023-03-18T23:52:11.944Z,36.03
2023-03-18T23:54:39.802Z,36.17
2023-03-18T23:57:09.708Z,36.52
